Misión y Visión

La misión es proporcionar información fiable a la navegación aérea, contribuyendo a la seguridad, regularidad y eficiencia de la Navegación Aérea Internacional

La visión es contribuir sustancialmente al desarrollo de conocimientos y a la utilización de la meteorología aeronáutica a nivel nacional e internacional, mediante la innovación y la coparticipación con sectores sociales y productivos de la sociedad.

 
  Inicio
  Metar
  Taf
  Wintemp
  SIGMET
  Avisos
  Pronósticos
  Carpeta Meteorologica
  Imágenes Satelitales
  Climatología Aeronáutica
   
  ¿Quienes Somos?
  Contacto
  Eventos
  Publicaciones
  Politica de la Calidad
Taf

 

IMÁGENES DEL AEROPUERTO
(EN CONSTRUCCION)

 

PRONOSTICO DE AERÓDROMO
TAF / PROYECCION CLIMATICA
MES DE JULIO

 

AEROPUERTO ENRIQUE MALEK:

nil


TAF:

TAF MPDA 041700Z 0418/0506 22006KT 9999 SCT018 PROB30 TEMPO 0421/0501 7000 RA SCT018 BKN090 BECMG 0501/0504 00000KT=

 

AEROPUERTO PANAMA PACIFICO:

nil



TAF:

TAF MPPA 041700Z 0418/0518 36008KT 9999 SCT018 TEMPO 0420/0424 36012KT BECMG 0502/0506 36006KT=



AEROPUERTO MARCOS A. GELABERT:

nil



TAF:

TAF MPMG 041700Z 0418/0506 33006KT 9999 SCT018 PROB30 TEMPO 0420/0423 22003KT 8000 -SHRA SCT018TCU SCT090=

AEROPUERTO INTL. DE TOCUMEN:

nil



TAF:

TAF MPTO 041700Z 0418/0518 00000KT 9999 SCT018 TEMPO 0420/0424 05005KT=


AGOSTO 2015


TAF MPTO 021100Z 0212/0312 00000KT 9000 FEW018 SCT090 
    BECMG 0215/0218 02006KT SCT020 BKN100 PROB30 
    TEMPO 0219/0222 17005KT 6000 -TSRA SCT015CB BKN090=

TAF MPPA 021100Z 0212/0312 35005KT 9000 FEW016 SCT090 
    BECMG 0215/0218 34010KT SCT020 BKN100 PROB30 
    TEMPO 0220/0223 16008KT 6000 -TSRA SCT015CB BKN090=
       
       
TAF MPMG 020400Z 0206/0218 00000KT 9999 FEW018CB SCT100 
    BECMG 0214/0218 33006KT 9000 SCT020 BKN090=
       
TAF MPDA 020400Z 0206/0218 00000KT 9999 FEW017CB SCT100 
    BECMG 0214/0218 23006KT 9000 SCT018 BKN090=
       

 

 
 















  Noticias AAC
  Directorio
  Contáctenos
  Historia
  Quejas y Sugerencias
  Etica y Transparencia

  Gestión SSP/SMS
  Seguridad Aérea
  Navegación Aérea
  Transporte Aéreo

  Tramites
  Áeronaves de Alquiler

  Meteorología
  I.S.F.P.A
  Notam
  Peligro Aviario
  AVSEC
  UPIA
  Permisos
 




DECLARACIÓN DE PRIVACIDAD